NCAR-RAP Real-Time Weather Data

Output produced by METARs form (17 October 2018  15:41 UTC)
found at http://weather.rap.ucar.edu/surface/
 
RJAH 171500Z 36003KT 9999 FEW030 SCT100 BKN/// 12/11 Q1014
RJAH 171400Z 35004KT 9999 FEW030 SCT100 BKN/// 13/11 Q1014
RJAH 171300Z 01005KT 9999 FEW030 SCT100 BKN/// 14/11 Q1014
RJAH 171200Z 36005KT 9999 FEW030 SCT100 BKN/// 14/11 Q1014
RJAH 171148Z 35005KT 9999 FEW030 SCT100 BKN/// 14/11 Q1014 RMK 1CU030 3AC100 A2995
RJAH 171100Z 05005KT 9999 FEW035 BKN100 16/11 Q1013
RJAH 171000Z 04008KT 9999 FEW035 BKN100 16/11 Q1013
RJAH 170932Z 05008KT 9999 FEW035 BKN100 16/11 Q1013 RMK 1CU035 5AC100 A2993
RJAH 170900Z 05011KT 9999 FEW035 BKN/// 17/11 Q1012
RJAH 170800Z 05012KT 9999 FEW035 BKN230 17/11 Q1011
RJAH 170700Z 06012KT 9999 FEW030 BKN230 18/12 Q1011
RJAH 170600Z 06011KT 9999 FEW020 BKN250 20/13 Q1010
RJAH 170526Z 07011KT 9999 FEW020 SCT070 BKN250 19/14 Q1010 RMK 1CU020 3AC070 A2982
RJAH 170500Z 03008KT 9999 FEW035 BKN070 BKN250 20/12 Q1009
RJAH 170400Z 01009KT 9999 FEW025 BKN070 19/11 Q1010
RJAH 170300Z 03009KT 9999 FEW025 BKN030 BKN080 21/12 Q1010
RJAH 170239Z 03008KT 360V080 9999 FEW020 SCT025 BKN100 20/12 Q1010 RMK 1CU020 3CU025 5AC100 A2983
RJAH 170200Z 05008KT 010V080 9999 FEW020 SCT035 BKN230 21/14 Q1010
RJAH 170141Z 05007KT 020V080 9999 FEW020 SCT035 BKN230 21/13 Q1010 RMK 2CU020 3CU035 A2984
RJAH 170100Z 04007KT 9999 FEW015 BKN120 BKN230 20/15 Q1010
RJAH 170000Z 36006KT 9999 FEW025 BKN120 BKN230 17/14 Q1010
RJAH 162336Z 35003KT 320V040 9999 -SHRA FEW020 SCT025 BKN100 17/15 Q1010 RMK 1CU020 3CU025 6AC100 A2985
RJAH 162304Z 34004KT 9999 -SHRA FEW020 BKN025 BKN100 17/15 Q1010 RMK 1CU020 5CU025 6AC100 A2985
RJAH 162300Z 35006KT 9999 -SHRA FEW020 SCT025 BKN100 16/15 Q1010
RJAH 162247Z 35006KT 9999 -SHRA SCT020 BKN100 16/15 Q1010 RMK 3CU020 6AC100 A2984
RJAH 162200Z 01003KT 9999 FEW020 BKN080 15/15 Q1009
RJAH 162100Z VRB02KT 9999 -RA FEW020 BKN070 BKN210 15/15 Q1009
RJAH 162000Z 35003KT 9999 -RA FEW020 OVC080 15/15 Q1009
RJAH 161900Z 34004KT 9999 -RA FEW020 OVC100 15/14 Q1008
RJAH 161800Z 02005KT 9999 -RA FEW020 OVC100 15/13 Q1008
RJAH 161739Z 35005KT 9999 -RA FEW020 SCT050 OVC100 15/14 Q1008 RMK 1SC020 3SC050 8AS100 A2978
RJAH 161700Z 01004KT 9999 FEW020 SCT050 OVC120 15/14 Q1008
RJAH 161600Z 34005KT 9999 FEW020 SCT050 OVC140 15/14 Q1009
RJAH 161500Z 36004KT 9999 FEW020 SCT050 OVC160 15/14 Q1009
RJAH 161400Z 35006KT 9999 FEW020 SCT050 OVC160 15/15 Q1009
RJAH 161348Z 35006KT 9999 FEW020 SCT050 BKN160 15/15 Q1010 RMK 1SC020 3SC050 5AC160 A2982
RJAH 161300Z 35006KT 9999 FEW020 OVC/// 16/15 Q1010
RJAH 161200Z 36006KT 9999 FEW020 SCT050 OVC/// 16/15 Q1010
RJAH 161100Z 01004KT 9999 FEW020 BKN050 OVC/// 16/15 Q1011
RJAH 161033Z 01005KT 9999 FEW020 BKN060 OVC/// 16/15 Q1011 RMK 1SC020 5SC060 A2987
RJAH 161000Z 01004KT 9999 FEW020 SCT060 OVC/// 16/15 Q1011
RJAH 160900Z 01005KT 9999 FEW020 SCT180 OVC/// 17/15 Q1011
RJAH 160800Z 06005KT 030V090 9999 FEW020 SCT180 OVC210 18/15 Q1012
RJAH 160745Z 06006KT 9999 FEW020 SCT180 OVC210 18/16 Q1012 RMK 1SC020 3AC180 A2988
RJAH 160700Z 06008KT 9999 FEW020 BKN180 OVC210 19/15 Q1012
RJAH 160600Z 06009KT 9999 FEW015 SCT020 BKN180 20/15 Q1012
RJAH 160500Z 06007KT 9999 SCT020 BKN180 OVC210 20/14 Q1012
RJAH 160451Z 05007KT 020V080 9999 SCT020 BKN180 OVC210 20/15 Q1012 RMK 3SC020 5AC180 A2990
RJAH 160400Z 08006KT 050V110 9999 SCT020 SCT180 OVC210 20/14 Q1012
RJAH 160300Z 07006KT 330V130 9999 SCT025 SCT080 OVC210 21/14 Q1013
RJAH 160200Z VRB03KT 9999 SCT020 SCT080 OVC210 20/14 Q1014
RJAH 160100Z 35006KT 9999 FEW030 SCT080 OVC230 20/13 Q1014
RJAH 160032Z 34005KT 9999 FEW030 SCT080 BKN250 19/14 Q1015 RMK 1CU030 3AC080 A2998
RJAH 160000Z 34004KT 300V010 9999 FEW030 BKN080 BKN250 19/14 Q1015
RJAH 152300Z VRB02KT 9999 FEW030 BKN080 BKN250 15/14 Q1016
RJAH 152200Z 36002KT 9999 FEW030 BKN070 BKN250 14/14 Q1016
RJAH 152100Z 36003KT 9999 FEW030 BKN070 BKN250 13/13 Q1015
RJAH 152023Z 36003KT 9999 FEW030 BKN080 BKN250 13/13 Q1015 RMK 1CU030 5AC080 A2999
RJAH 152000Z 01003KT 9999 FEW030 SCT080 BKN/// 13/13 Q1015
RJAH 151948Z 02003KT 9999 FEW030 SCT080 BKN/// 13/13 Q1015 RMK 1CU030 3AC080 A2999
RJAH 151900Z 35003KT 9999 FEW030 BKN080 BKN/// 14/14 Q1015
RJAH 151800Z 35003KT 9999 FEW030 BKN100 BKN/// 14/14 Q1016
RJAH 151700Z VRB02KT 9999 FEW030 BKN100 BKN/// 14/14 Q1015
RJAH 151600Z VRB02KT 9999 FEW030 BKN100 14/14 Q1016
RJAH 151500Z 01003KT 9999 -RA FEW030 OVC100 15/15 Q1016
RJAH 151400Z 35003KT 9999 -RA FEW030 OVC100 15/15 Q1016
RJAH 151300Z 01003KT 9999 -RA FEW030 OVC100 16/14 Q1017
RJAH 151200Z 34003KT 9999 -RA FEW030 OVC100 16/14 Q1017
RJAH 151121Z 36003KT 9999 -RA FEW030 OVC100 16/14 Q1017 RMK 1CU030 8AS100 A3004
RJAH 151100Z 03002KT 9999 FEW030 OVC100 17/13 Q1017
RJAH 151000Z 35004KT 9999 FEW030 OVC100 16/14 Q1017
RJAH 150925Z 36003KT 9999 FEW030 OVC100 16/14 Q1017 RMK 1CU030 8AC100 A3003
RJAH 150900Z 02004KT 9999 -SHRA FEW030 OVC100 16/14 Q1017
RJAH 150846Z 02004KT 9999 -SHRA FEW030 BKN100 OVC/// 16/14 Q1017 RMK 1CU030 7AC100 A3003
RJAH 150800Z 06004KT 020V080 9999 FEW030 BKN120 OVC250 17/14 Q1017
RJAH 150700Z 12005KT 9999 FEW030 BKN120 OVC250 18/12 Q1016
RJAH 150614Z 10004KT 9999 FEW030 BKN120 OVC250 19/11 Q1017 RMK 2CU030 6AC120 A3004
RJAH 150600Z 09005KT 9999 -SHRA FEW030 BKN120 OVC250 19/12 Q1016
RJAH 150544Z 07006KT 9999 -SHRA FEW030 BKN120 OVC250 19/12 Q1017 RMK 2CU030 6AC120 A3004
RJAH 150500Z 09004KT 9999 FEW025 BKN140 OVC250 20/12 Q1017
RJAH 150400Z 11005KT 9999 FEW025 BKN160 BKN250 20/12 Q1017